Time;durP1;ratioP1;P1;durP2;ratioP2;P2;SDS_P1;SDS_P2;PMS_P1;PMS_P2;Temp;Humidity;BMP_temperature;BMP_pressure;BME280_temperature;BME280_humidity;BME280_pressure;Samples;Min_cycle;Max_cycle;Signal;HPM_P1;HPM_P2
2022/01/29 00:01:59;;;;;;;8.90;5.27;;;;;;;;;;5058505;28;20480;-80
2022/01/29 00:04:25;;;;;;;11.97;5.77;;;;;;;;;;5058599;28;20451;-80
2022/01/29 00:06:51;;;;;;;8.40;5.10;;;;;;;;;;5055087;28;20406;-79
2022/01/29 00:09:17;;;;;;;7.80;4.70;;;;;;;;;;5057376;28;20454;-80
2022/01/29 00:11:43;;;;;;;7.27;5.10;;;;;;;;;;5058352;28;20406;-80
2022/01/29 00:14:09;;;;;;;8.33;5.23;;;;;;;;;;5056644;28;20537;-79
2022/01/29 00:16:36;;;;;;;7.43;4.57;;;;;;;;;;5057753;28;20402;-79
2022/01/29 00:19:02;;;;;;;8.60;5.20;;;;;;;;;;5057957;28;20497;-79
2022/01/29 00:21:28;;;;;;;11.03;6.20;;;;;;;;;;5057968;28;20389;-79
2022/01/29 00:23:54;;;;;;;9.90;6.60;;;;;;;;;;5058309;28;20414;-79
2022/01/29 00:26:22;;;;;;;7.90;5.80;;;;;;;;;;5058080;28;20402;-79
2022/01/29 00:28:48;;;;;;;10.43;5.73;;;;;;;;;;5056946;28;20500;-79
2022/01/29 00:31:15;;;;;;;8.80;5.70;;;;;;;;;;5057910;28;20424;-79
2022/01/29 00:33:41;;;;;;;6.00;5.00;;;;;;;;;;5057687;28;20453;-79
2022/01/29 00:36:07;;;;;;;10.63;6.00;;;;;;;;;;5058210;28;20977;-79
2022/01/29 00:38:35;;;;;;;13.03;5.80;;;;;;;;;;5062021;28;20430;-79
2022/01/29 00:41:01;;;;;;;6.97;5.80;;;;;;;;;;5067593;28;20409;-79
2022/01/29 00:43:27;;;;;;;9.40;5.53;;;;;;;;;;5061905;28;20497;-79
2022/01/29 00:45:53;;;;;;;8.60;5.63;;;;;;;;;;5056976;28;20473;-78
2022/01/29 00:48:19;;;;;;;9.63;6.07;;;;;;;;;;5057412;28;20510;-79
2022/01/29 00:50:45;;;;;;;8.13;5.60;;;;;;;;;;5060721;28;20406;-79
2022/01/29 00:53:11;;;;;;;9.80;5.30;;;;;;;;;;5064319;28;20467;-79
2022/01/29 00:55:40;;;;;;;7.00;5.40;;;;;;;;;;5062366;28;20398;-79
2022/01/29 00:58:06;;;;;;;7.43;5.30;;;;;;;;;;5057802;28;20835;-79
2022/01/29 01:00:32;;;;;;;9.13;5.43;;;;;;;;;;5056239;28;20413;-79
2022/01/29 01:02:58;;;;;;;7.90;5.20;;;;;;;;;;5057878;28;20402;-79
2022/01/29 01:05:25;;;;;;;12.60;6.77;;;;;;;;;;5057010;28;20920;-79
2022/01/29 01:07:51;;;;;;;11.50;5.80;;;;;;;;;;5057074;28;20485;-79
2022/01/29 01:10:17;;;;;;;12.13;5.80;;;;;;;;;;5057364;28;20784;-79
2022/01/29 01:12:43;;;;;;;9.00;5.93;;;;;;;;;;5056969;28;20436;-79
2022/01/29 01:15:09;;;;;;;9.10;5.40;;;;;;;;;;5057025;28;20398;-79
2022/01/29 01:17:35;;;;;;;7.53;5.80;;;;;;;;;;5057462;28;20560;-79
2022/01/29 01:20:02;;;;;;;10.50;5.93;;;;;;;;;;5057264;28;20413;-79
2022/01/29 01:22:28;;;;;;;8.63;6.00;;;;;;;;;;5056781;28;20410;-79
2022/01/29 01:24:54;;;;;;;12.73;6.77;;;;;;;;;;5057031;28;20424;-79
2022/01/29 01:27:20;;;;;;;8.70;5.27;;;;;;;;;;5056964;28;20504;-79
2022/01/29 01:29:46;;;;;;;9.07;5.97;;;;;;;;;;5056844;28;20405;-79
2022/01/29 01:32:13;;;;;;;10.20;5.60;;;;;;;;;;5056334;28;20492;-79
2022/01/29 01:34:45;;;;;;;13.30;6.13;;;;;;;;;;5056700;28;20449;-80
2022/01/29 01:37:17;;;;;;;7.17;4.60;;;;;;;;;;5056955;28;20456;-79
2022/01/29 01:39:43;;;;;;;8.40;5.53;;;;;;;;;;5055813;28;20421;-79
2022/01/29 01:42:09;;;;;;;7.60;5.50;;;;;;;;;;5056622;28;20869;-80
2022/01/29 01:44:39;;;;;;;11.37;5.57;;;;;;;;;;5056940;28;20451;-79
2022/01/29 01:47:05;;;;;;;8.70;4.90;;;;;;;;;;5056865;28;20402;-79
2022/01/29 01:49:32;;;;;;;11.90;6.40;;;;;;;;;;5056726;28;20947;-80
2022/01/29 01:51:59;;;;;;;7.80;5.70;;;;;;;;;;5057089;28;20418;-80
2022/01/29 01:54:25;;;;;;;7.67;5.23;;;;;;;;;;5056823;28;20466;-79
2022/01/29 01:56:51;;;;;;;11.10;6.03;;;;;;;;;;5057231;28;20412;-80
2022/01/29 01:59:17;;;;;;;9.23;6.23;;;;;;;;;;5055096;28;20424;-80
2022/01/29 02:01:43;;;;;;;9.50;6.10;;;;;;;;;;5058124;28;20440;-79
2022/01/29 02:04:09;;;;;;;10.03;5.97;;;;;;;;;;5057802;28;20397;-79
2022/01/29 02:06:35;;;;;;;10.10;6.60;;;;;;;;;;5060445;28;20397;-79
2022/01/29 02:09:01;;;;;;;8.97;5.43;;;;;;;;;;5060857;28;20433;-79
2022/01/29 02:11:29;;;;;;;8.70;5.53;;;;;;;;;;5060694;28;20844;-79
2022/01/29 02:13:57;;;;;;;11.33;6.20;;;;;;;;;;5060433;28;20510;-79
2022/01/29 02:16:26;;;;;;;10.53;5.00;;;;;;;;;;5060107;28;20408;-79
2022/01/29 02:18:52;;;;;;;10.33;6.50;;;;;;;;;;5060133;28;20432;-80
2022/01/29 02:21:19;;;;;;;8.93;5.10;;;;;;;;;;5059661;28;20414;-79
2022/01/29 02:23:46;;;;;;;6.87;5.20;;;;;;;;;;5060425;28;20421;-79
2022/01/29 02:26:12;;;;;;;5.50;4.73;;;;;;;;;;5059225;28;20402;-80
2022/01/29 02:28:38;;;;;;;8.73;5.50;;;;;;;;;;5060159;28;20460;-80
2022/01/29 02:31:04;;;;;;;6.97;5.13;;;;;;;;;;5060282;28;20413;-80
2022/01/29 02:33:34;;;;;;;7.80;5.00;;;;;;;;;;5047754;28;20542;-79
2022/01/29 02:36:00;;;;;;;7.70;5.70;;;;;;;;;;5040518;28;20411;-79
2022/01/29 02:38:27;;;;;;;12.70;5.50;;;;;;;;;;5039943;28;20438;-79
2022/01/29 02:40:58;;;;;;;7.10;5.13;;;;;;;;;;5040419;28;20407;-80
2022/01/29 02:43:34;;;;;;;12.83;6.80;;;;;;;;;;5039133;28;20464;-79
2022/01/29 02:46:07;;;;;;;7.67;5.20;;;;;;;;;;5040026;28;20467;-79
2022/01/29 02:48:33;;;;;;;7.00;4.43;;;;;;;;;;5039574;28;20426;-78
2022/01/29 02:50:59;;;;;;;8.07;5.50;;;;;;;;;;5039637;28;20417;-79
2022/01/29 02:53:25;;;;;;;7.80;5.20;;;;;;;;;;5039495;28;20942;-78
2022/01/29 02:55:51;;;;;;;14.90;6.00;;;;;;;;;;5040243;28;20913;-79
2022/01/29 02:58:17;;;;;;;7.83;5.50;;;;;;;;;;5039272;28;20434;-79
2022/01/29 03:00:43;;;;;;;7.00;5.60;;;;;;;;;;5039686;28;20948;-79
2022/01/29 03:03:09;;;;;;;9.10;5.10;;;;;;;;;;5038862;28;20417;-79
2022/01/29 03:05:35;;;;;;;7.97;5.07;;;;;;;;;;5040613;28;20409;-79
2022/01/29 03:08:01;;;;;;;6.83;5.17;;;;;;;;;;5040069;28;20519;-79
2022/01/29 03:10:28;;;;;;;12.43;5.17;;;;;;;;;;5040266;28;20410;-79
2022/01/29 03:12:54;;;;;;;7.30;5.17;;;;;;;;;;5039689;28;20403;-79
2022/01/29 03:15:20;;;;;;;5.97;4.97;;;;;;;;;;5039464;28;20403;-79
2022/01/29 03:17:48;;;;;;;10.70;5.53;;;;;;;;;;5038821;28;20427;-79
2022/01/29 03:20:14;;;;;;;8.23;4.70;;;;;;;;;;5039022;28;20425;-78
2022/01/29 03:22:40;;;;;;;7.23;4.83;;;;;;;;;;5039205;28;20907;-79
2022/01/29 03:25:07;;;;;;;8.73;5.47;;;;;;;;;;5039089;28;20415;-79
2022/01/29 03:27:33;;;;;;;7.27;4.80;;;;;;;;;;5039863;28;20427;-79
2022/01/29 03:29:59;;;;;;;5.83;4.90;;;;;;;;;;5039634;28;20411;-79
2022/01/29 03:32:25;;;;;;;14.53;5.07;;;;;;;;;;5037676;28;20771;-79
2022/01/29 03:34:51;;;;;;;7.20;5.50;;;;;;;;;;5039376;28;20470;-79
2022/01/29 03:37:17;;;;;;;8.00;5.33;;;;;;;;;;5047604;28;20422;-79
2022/01/29 03:39:45;;;;;;;9.00;5.07;;;;;;;;;;5044322;28;20497;-79
2022/01/29 03:42:13;;;;;;;7.50;5.77;;;;;;;;;;5042963;28;20437;-79
2022/01/29 03:44:39;;;;;;;8.80;4.80;;;;;;;;;;5040906;28;20826;-79
2022/01/29 03:47:05;;;;;;;8.20;5.60;;;;;;;;;;5039377;28;20494;-79
2022/01/29 03:49:31;;;;;;;9.33;5.30;;;;;;;;;;5039013;28;20434;-79
2022/01/29 03:51:57;;;;;;;7.50;5.87;;;;;;;;;;5039143;28;20421;-79
2022/01/29 03:54:23;;;;;;;7.10;4.90;;;;;;;;;;5038481;28;20442;-79
2022/01/29 03:56:50;;;;;;;9.07;5.47;;;;;;;;;;5039235;28;20771;-79
2022/01/29 03:59:16;;;;;;;7.33;5.23;;;;;;;;;;5038899;28;20430;-79
2022/01/29 04:01:42;;;;;;;9.17;5.83;;;;;;;;;;5038793;28;20541;-79
2022/01/29 04:04:08;;;;;;;12.63;6.13;;;;;;;;;;5044838;28;20440;-79
2022/01/29 04:06:34;;;;;;;10.10;5.70;;;;;;;;;;5056102;28;20418;-79
2022/01/29 04:09:04;;;;;;;8.77;5.73;;;;;;;;;;5055765;28;20449;-79
2022/01/29 04:11:33;;;;;;;11.37;5.43;;;;;;;;;;5057801;28;20464;-79
2022/01/29 04:13:59;;;;;;;7.37;5.00;;;;;;;;;;5058822;28;20848;-79
2022/01/29 04:16:25;;;;;;;8.83;5.27;;;;;;;;;;5058233;28;20901;-79
2022/01/29 04:18:51;;;;;;;14.23;8.13;;;;;;;;;;5057803;28;20501;-79
2022/01/29 04:21:17;;;;;;;7.63;5.40;;;;;;;;;;5057672;28;20409;-79
2022/01/29 04:23:43;;;;;;;6.43;4.87;;;;;;;;;;5057799;28;20470;-79
2022/01/29 04:26:09;;;;;;;9.03;5.27;;;;;;;;;;5057858;28;20459;-79
2022/01/29 04:28:42;;;;;;;7.97;5.10;;;;;;;;;;5057431;28;20429;-79
2022/01/29 04:31:16;;;;;;;8.73;4.97;;;;;;;;;;5057453;28;20390;-79
2022/01/29 04:33:42;;;;;;;7.90;5.07;;;;;;;;;;5057818;28;20453;-79
2022/01/29 04:36:09;;;;;;;7.50;5.47;;;;;;;;;;5058513;28;20843;-79
2022/01/29 04:38:35;;;;;;;11.50;5.17;;;;;;;;;;5059138;23;20659;-79
2022/01/29 04:41:03;;;;;;;8.07;5.10;;;;;;;;;;5015346;28;20951;-79
2022/01/29 04:43:30;;;;;;;7.10;4.73;;;;;;;;;;5018034;28;20392;-79
2022/01/29 04:45:56;;;;;;;9.23;4.70;;;;;;;;;;5017907;28;20400;-80
2022/01/29 04:48:22;;;;;;;6.73;5.00;;;;;;;;;;5016968;28;20858;-80
2022/01/29 04:50:48;;;;;;;7.53;5.07;;;;;;;;;;5014383;28;20827;-80
2022/01/29 04:53:14;;;;;;;7.83;4.90;;;;;;;;;;5015945;28;20832;-80
2022/01/29 04:55:40;;;;;;;10.23;5.07;;;;;;;;;;5017061;28;20833;-80
2022/01/29 04:58:08;;;;;;;9.47;5.60;;;;;;;;;;5017340;28;20423;-80
2022/01/29 05:00:35;;;;;;;10.00;4.80;;;;;;;;;;5017565;28;20482;-79
2022/01/29 05:03:15;;;;;;;6.77;5.13;;;;;;;;;;5016648;28;20436;-80
2022/01/29 05:05:42;;;;;;;10.90;5.33;;;;;;;;;;5017276;28;20380;-80
2022/01/29 05:08:08;;;;;;;8.80;5.57;;;;;;;;;;5017973;28;20428;-79
2022/01/29 05:10:35;;;;;;;9.30;5.60;;;;;;;;;;5017802;28;20771;-80
2022/01/29 05:13:10;;;;;;;6.30;4.43;;;;;;;;;;5017234;28;20404;-80
2022/01/29 05:15:43;;;;;;;7.60;4.93;;;;;;;;;;5017695;28;20410;-80
2022/01/29 05:29:10;;;;;;;7.30;4.97;;;;;;;;;;5017535;28;20495;-80
2022/01/29 05:31:37;;;;;;;10.43;4.60;;;;;;;;;;5017374;28;20414;-80
2022/01/29 05:34:03;;;;;;;8.63;5.50;;;;;;;;;;5017938;28;20462;-80
2022/01/29 05:36:29;;;;;;;6.00;4.83;;;;;;;;;;5018154;28;20469;-79
2022/01/29 05:38:55;;;;;;;6.60;5.37;;;;;;;;;;5015785;28;20454;-79
2022/01/29 05:41:21;;;;;;;11.80;5.77;;;;;;;;;;5018337;28;20427;-78
2022/01/29 05:43:47;;;;;;;12.00;5.70;;;;;;;;;;5020282;28;20461;-79
2022/01/29 05:46:15;;;;;;;8.93;5.40;;;;;;;;;;5019435;28;20415;-79
2022/01/29 05:48:41;;;;;;;9.43;5.40;;;;;;;;;;5019348;28;20471;-79
2022/01/29 05:51:07;;;;;;;7.50;5.50;;;;;;;;;;5019227;28;20815;-80
2022/01/29 05:53:34;;;;;;;8.90;5.70;;;;;;;;;;5020849;28;20513;-80
2022/01/29 05:56:00;;;;;;;6.93;5.57;;;;;;;;;;5019383;28;20415;-80
2022/01/29 05:58:26;;;;;;;8.20;5.30;;;;;;;;;;5020160;28;20411;-79
2022/01/29 06:00:52;;;;;;;10.73;5.00;;;;;;;;;;5020658;28;20408;-80
2022/01/29 06:03:18;;;;;;;7.80;5.30;;;;;;;;;;5019784;28;20418;-80
2022/01/29 06:05:44;;;;;;;6.37;4.50;;;;;;;;;;5019429;28;20454;-80
2022/01/29 06:08:13;;;;;;;10.93;5.00;;;;;;;;;;5019186;28;20435;-80
2022/01/29 06:10:39;;;;;;;8.60;5.60;;;;;;;;;;5019127;28;20415;-80
2022/01/29 06:13:05;;;;;;;6.30;4.97;;;;;;;;;;5020480;28;20414;-80
2022/01/29 06:15:33;;;;;;;7.60;6.03;;;;;;;;;;5020718;28;20434;-80
2022/01/29 06:17:59;;;;;;;8.67;4.67;;;;;;;;;;5019712;28;20412;-80
2022/01/29 06:20:26;;;;;;;6.73;4.60;;;;;;;;;;5018926;28;20419;-80
2022/01/29 06:22:52;;;;;;;7.20;5.00;;;;;;;;;;5020374;28;20399;-80
2022/01/29 06:25:18;;;;;;;8.50;5.13;;;;;;;;;;5020616;28;20922;-80
2022/01/29 06:27:44;;;;;;;8.50;5.27;;;;;;;;;;5020102;28;20404;-79
2022/01/29 06:30:11;;;;;;;5.77;4.20;;;;;;;;;;5020146;28;20396;-80
2022/01/29 06:32:37;;;;;;;6.60;4.00;;;;;;;;;;5019414;28;20415;-80
2022/01/29 06:35:03;;;;;;;6.07;4.90;;;;;;;;;;5018501;28;20986;-79
2022/01/29 06:37:29;;;;;;;9.50;4.90;;;;;;;;;;5020464;28;20437;-80
2022/01/29 06:39:56;;;;;;;7.73;4.00;;;;;;;;;;5019697;28;20446;-80
2022/01/29 06:42:22;;;;;;;5.93;4.30;;;;;;;;;;5020074;28;20427;-80
2022/01/29 06:44:48;;;;;;;6.17;3.97;;;;;;;;;;5019944;28;20494;-80
2022/01/29 06:47:14;;;;;;;4.17;2.83;;;;;;;;;;5018090;28;20915;-79
2022/01/29 06:49:40;;;;;;;7.03;4.20;;;;;;;;;;5021049;28;20447;-80
2022/01/29 06:52:06;;;;;;;4.43;3.10;;;;;;;;;;5017563;28;20439;-80
2022/01/29 06:54:32;;;;;;;6.60;3.90;;;;;;;;;;5019168;28;20447;-80
2022/01/29 06:56:58;;;;;;;5.60;3.70;;;;;;;;;;5019495;28;20404;-79
2022/01/29 06:59:24;;;;;;;4.47;2.40;;;;;;;;;;5018276;28;20428;-80
2022/01/29 07:01:50;;;;;;;6.43;2.80;;;;;;;;;;5020072;28;20453;-80
2022/01/29 07:04:16;;;;;;;5.17;2.83;;;;;;;;;;5018170;28;20416;-80
2022/01/29 07:06:43;;;;;;;4.97;3.23;;;;;;;;;;5018201;28;20426;-80
2022/01/29 07:09:09;;;;;;;4.77;3.20;;;;;;;;;;5018371;28;20440;-79
2022/01/29 07:11:35;;;;;;;3.47;2.50;;;;;;;;;;5019954;28;20473;-80
2022/01/29 07:14:03;;;;;;;4.67;3.13;;;;;;;;;;5022352;28;20455;-79
2022/01/29 07:16:31;;;;;;;3.40;2.50;;;;;;;;;;5021686;28;20408;-80
2022/01/29 07:18:57;;;;;;;4.97;3.00;;;;;;;;;;5020079;28;20435;-80
2022/01/29 07:21:23;;;;;;;6.00;2.97;;;;;;;;;;5019312;28;20435;-80
2022/01/29 07:23:49;;;;;;;3.10;2.20;;;;;;;;;;5019711;28;20760;-80
2022/01/29 07:26:15;;;;;;;4.53;3.00;;;;;;;;;;5017684;28;20419;-80
2022/01/29 07:28:41;;;;;;;2.63;2.23;;;;;;;;;;5019194;28;20442;-80
2022/01/29 07:31:07;;;;;;;3.80;2.67;;;;;;;;;;5019435;28;20416;-80
2022/01/29 07:33:34;;;;;;;6.10;2.57;;;;;;;;;;5019214;28;20452;-80
2022/01/29 07:36:00;;;;;;;2.60;2.40;;;;;;;;;;5019059;28;20414;-80
2022/01/29 07:38:26;;;;;;;3.80;2.60;;;;;;;;;;5017533;28;20462;-80
2022/01/29 07:40:52;;;;;;;3.90;3.00;;;;;;;;;;5018057;28;20418;-80
2022/01/29 07:43:19;;;;;;;2.70;1.97;;;;;;;;;;5018283;28;20423;-81
2022/01/29 07:45:45;;;;;;;4.50;3.03;;;;;;;;;;5017155;28;20416;-80
2022/01/29 07:48:11;;;;;;;4.63;2.57;;;;;;;;;;5018741;28;20435;-81
2022/01/29 07:50:37;;;;;;;4.07;2.30;;;;;;;;;;5018228;28;20419;-81
2022/01/29 07:53:03;;;;;;;5.33;2.77;;;;;;;;;;5018150;28;20509;-81
2022/01/29 07:55:30;;;;;;;4.13;2.20;;;;;;;;;;5017980;28;20412;-81
2022/01/29 07:57:57;;;;;;;4.63;2.30;;;;;;;;;;5018890;28;20438;-80
2022/01/29 08:00:23;;;;;;;3.60;2.50;;;;;;;;;;5021053;28;20426;-80
2022/01/29 08:02:49;;;;;;;4.93;2.57;;;;;;;;;;5021873;28;20430;-80
2022/01/29 08:05:15;;;;;;;4.23;2.67;;;;;;;;;;5021101;28;20414;-81
2022/01/29 08:07:41;;;;;;;8.53;2.63;;;;;;;;;;5019644;28;20431;-81
2022/01/29 08:10:08;;;;;;;7.70;2.90;;;;;;;;;;5017618;28;20911;-80
2022/01/29 08:12:35;;;;;;;4.40;2.43;;;;;;;;;;5017675;28;20452;-80
2022/01/29 08:15:01;;;;;;;5.87;3.20;;;;;;;;;;5022090;28;20536;-80
2022/01/29 08:17:27;;;;;;;3.50;2.30;;;;;;;;;;5017413;28;20442;-80
2022/01/29 08:19:54;;;;;;;4.67;2.33;;;;;;;;;;5018832;28;20440;-80
2022/01/29 08:22:20;;;;;;;2.80;2.43;;;;;;;;;;5018291;28;20805;-80
2022/01/29 08:24:46;;;;;;;4.73;2.67;;;;;;;;;;5018009;28;20434;-80
2022/01/29 08:27:12;;;;;;;3.00;2.23;;;;;;;;;;5016816;28;20491;-80
2022/01/29 08:29:38;;;;;;;8.17;3.17;;;;;;;;;;5017075;28;20448;-80
2022/01/29 08:32:05;;;;;;;4.70;2.87;;;;;;;;;;5016572;28;20415;-81
2022/01/29 08:34:31;;;;;;;4.20;2.37;;;;;;;;;;5017283;28;20456;-80
2022/01/29 08:37:04;;;;;;;8.87;2.90;;;;;;;;;;5017496;28;20428;-81
2022/01/29 08:39:30;;;;;;;3.63;2.17;;;;;;;;;;5014376;28;20897;-80
2022/01/29 08:41:57;;;;;;;6.10;2.80;;;;;;;;;;5016888;28;20423;-81
2022/01/29 08:44:23;;;;;;;3.33;2.40;;;;;;;;;;5016513;28;20506;-81
2022/01/29 08:46:49;;;;;;;4.23;2.67;;;;;;;;;;5013302;28;20483;-81
2022/01/29 08:49:15;;;;;;;5.57;1.93;;;;;;;;;;5016179;28;20463;-81
2022/01/29 08:51:41;;;;;;;3.77;2.43;;;;;;;;;;5016995;28;20435;-81
2022/01/29 08:54:07;;;;;;;2.70;2.20;;;;;;;;;;5016449;28;20457;-81
2022/01/29 08:56:33;;;;;;;3.60;2.43;;;;;;;;;;5017012;28;20469;-79
2022/01/29 08:59:00;;;;;;;4.27;2.60;;;;;;;;;;5018151;28;20420;-81
2022/01/29 09:01:26;;;;;;;4.70;2.27;;;;;;;;;;5015767;28;20423;-80
2022/01/29 09:03:52;;;;;;;4.43;2.40;;;;;;;;;;5017290;28;20419;-80
2022/01/29 09:06:18;;;;;;;2.70;2.20;;;;;;;;;;5016172;28;20431;-81
2022/01/29 09:08:48;;;;;;;3.17;2.20;;;;;;;;;;5016624;28;20216;-80
2022/01/29 09:11:15;;;;;;;2.37;1.87;;;;;;;;;;5018592;28;20465;-81
2022/01/29 09:13:41;;;;;;;3.40;2.57;;;;;;;;;;5017026;28;20463;-79
2022/01/29 09:16:07;;;;;;;2.30;1.90;;;;;;;;;;5017488;28;20441;-80
2022/01/29 09:18:33;;;;;;;4.43;2.00;;;;;;;;;;5017921;28;20800;-80
2022/01/29 09:21:00;;;;;;;5.50;2.47;;;;;;;;;;5016889;28;20447;-79
2022/01/29 09:23:26;;;;;;;5.00;1.80;;;;;;;;;;5018618;28;20414;-79
2022/01/29 09:25:52;;;;;;;4.20;1.80;;;;;;;;;;5015624;28;20899;-79
2022/01/29 09:28:19;;;;;;;2.77;2.43;;;;;;;;;;5016359;28;20287;-78
2022/01/29 09:30:45;;;;;;;2.67;2.03;;;;;;;;;;5018221;28;20458;-79
2022/01/29 09:33:12;;;;;;;2.80;1.93;;;;;;;;;;5016593;28;20907;-79
2022/01/29 09:35:38;;;;;;;2.90;1.40;;;;;;;;;;5018689;28;20400;-79
2022/01/29 09:38:06;;;;;;;4.83;1.90;;;;;;;;;;5017522;28;20935;-79
2022/01/29 09:40:32;;;;;;;3.23;1.40;;;;;;;;;;5018045;28;20395;-79
2022/01/29 09:42:59;;;;;;;2.43;1.70;;;;;;;;;;5018457;28;20450;-79
2022/01/29 09:45:26;;;;;;;3.00;1.90;;;;;;;;;;5017338;28;20412;-79
2022/01/29 09:48:01;;;;;;;5.88;2.00;;;;;;;;;;5018345;28;20312;-79
2022/01/29 09:50:28;;;;;;;3.40;1.60;;;;;;;;;;5018065;28;20169;-79
2022/01/29 09:52:54;;;;;;;5.20;1.60;;;;;;;;;;5021216;28;20408;-80
2022/01/29 09:55:20;;;;;;;2.30;1.50;;;;;;;;;;5019444;28;20478;-80
2022/01/29 09:57:46;;;;;;;2.67;1.37;;;;;;;;;;5017368;28;20411;-79
2022/01/29 10:00:12;;;;;;;2.30;1.30;;;;;;;;;;5016930;28;20407;-80
2022/01/29 10:02:39;;;;;;;2.47;1.40;;;;;;;;;;5017366;28;20411;-80
2022/01/29 10:05:05;;;;;;;2.50;1.47;;;;;;;;;;5018349;28;20407;-79
2022/01/29 10:07:31;;;;;;;1.70;1.07;;;;;;;;;;5017931;28;20942;-80
2022/01/29 10:09:58;;;;;;;2.03;1.20;;;;;;;;;;5018519;28;20444;-80
2022/01/29 10:12:27;;;;;;;2.90;1.30;;;;;;;;;;5021522;28;20422;-80
2022/01/29 10:14:53;;;;;;;3.07;1.07;;;;;;;;;;5018467;28;20475;-80
2022/01/29 10:17:38;;;;;;;2.60;1.20;;;;;;;;;;5018099;28;20403;-80
2022/01/29 10:20:17;;;;;;;2.33;1.20;;;;;;;;;;5018756;28;20416;-79
2022/01/29 10:22:48;;;;;;;3.10;1.50;;;;;;;;;;5017767;28;20400;-80
2022/01/29 10:25:19;;;;;;;6.43;1.77;;;;;;;;;;5018127;28;20983;-79
2022/01/29 10:28:17;;;;;;;2.00;1.33;;;;;;;;;;5020474;28;20387;-79
2022/01/29 10:30:50;;;;;;;5.43;1.60;;;;;;;;;;4999828;28;20420;-79
2022/01/29 10:33:26;;;;;;;4.43;1.60;;;;;;;;;;5020461;28;20935;-79
2022/01/29 10:35:54;;;;;;;2.93;1.47;;;;;;;;;;5019202;28;20427;-79
2022/01/29 10:41:31;;;;;;;4.27;1.33;;;;;;;;;;5058174;23;20994;-78
2022/01/29 10:43:58;;;;;;;4.37;1.63;;;;;;;;;;5046226;28;20426;-77
2022/01/29 10:46:28;;;;;;;6.73;1.30;;;;;;;;;;5041960;28;20399;-79
2022/01/29 10:48:54;;;;;;;8.77;1.80;;;;;;;;;;5041427;28;20417;-78
2022/01/29 10:51:20;;;;;;;6.50;1.63;;;;;;;;;;5039833;28;20445;-78
2022/01/29 10:53:46;;;;;;;2.90;1.00;;;;;;;;;;5036164;28;20457;-78
2022/01/29 10:56:12;;;;;;;2.00;1.47;;;;;;;;;;5037865;28;20426;-79
2022/01/29 10:58:43;;;;;;;3.10;1.40;;;;;;;;;;5039654;28;20456;-78
2022/01/29 11:01:16;;;;;;;1.90;1.00;;;;;;;;;;5041944;28;20439;-79
2022/01/29 11:03:43;;;;;;;1.90;1.23;;;;;;;;;;5045690;28;20421;-79
2022/01/29 11:06:09;;;;;;;3.17;2.30;;;;;;;;;;5040689;28;20407;-80
2022/01/29 11:08:35;;;;;;;3.37;1.60;;;;;;;;;;5037839;28;20422;-79
2022/01/29 11:11:02;;;;;;;2.70;1.13;;;;;;;;;;5038372;28;20434;-78
2022/01/29 11:13:29;;;;;;;1.93;1.33;;;;;;;;;;5038963;28;20447;-78
2022/01/29 11:15:56;;;;;;;2.27;1.10;;;;;;;;;;5053317;28;20453;-78
2022/01/29 11:18:25;;;;;;;4.10;1.33;;;;;;;;;;5044819;28;20399;-79
2022/01/29 11:20:51;;;;;;;2.70;1.60;;;;;;;;;;5040480;28;20525;-78
2022/01/29 11:23:18;;;;;;;3.83;1.30;;;;;;;;;;5039013;28;20427;-78
2022/01/29 11:25:44;;;;;;;2.13;0.97;;;;;;;;;;5039953;28;20403;-80
2022/01/29 11:28:12;;;;;;;2.70;1.10;;;;;;;;;;5037612;28;20421;-80
2022/01/29 11:30:38;;;;;;;1.80;1.47;;;;;;;;;;5036914;28;20850;-80
2022/01/29 11:33:04;;;;;;;3.03;1.00;;;;;;;;;;5038801;28;20406;-80
2022/01/29 11:35:31;;;;;;;1.97;1.33;;;;;;;;;;5039809;28;20512;-80
2022/01/29 11:38:03;;;;;;;2.97;1.17;;;;;;;;;;5049144;28;20411;-80
2022/01/29 11:40:32;;;;;;;1.63;1.03;;;;;;;;;;5037778;28;20450;-80
2022/01/29 11:43:06;;;;;;;3.60;1.30;;;;;;;;;;5037455;28;20421;-79
2022/01/29 11:45:42;;;;;;;2.43;1.50;;;;;;;;;;5038847;28;20504;-80
2022/01/29 11:48:33;;;;;;;2.23;1.30;;;;;;;;;;5039708;28;20433;-80
2022/01/29 11:51:00;;;;;;;3.23;1.43;;;;;;;;;;5042438;28;20438;-80
2022/01/29 11:53:48;;;;;;;2.87;1.57;;;;;;;;;;5040514;28;20458;-80
2022/01/29 11:56:29;;;;;;;2.33;1.30;;;;;;;;;;5040568;28;20427;-79
2022/01/29 11:59:14;;;;;;;2.70;1.40;;;;;;;;;;5022411;28;20494;-79
2022/01/29 12:01:40;;;;;;;1.90;1.13;;;;;;;;;;5032925;28;20487;-79
2022/01/29 12:04:07;;;;;;;2.83;1.60;;;;;;;;;;5039764;28;20415;-79
2022/01/29 12:06:35;;;;;;;2.97;1.30;;;;;;;;;;5038618;28;20485;-78
2022/01/29 12:11:27;;;;;;;2.70;1.60;;;;;;;;;;5038984;28;20512;-80
2022/01/29 12:14:23;;;;;;;4.17;1.47;;;;;;;;;;5038120;28;20541;-80
2022/01/29 12:16:54;;;;;;;7.00;1.37;;;;;;;;;;5014918;28;20511;-79
2022/01/29 12:19:40;;;;;;;2.03;1.57;;;;;;;;;;5050263;28;20418;-79
2022/01/29 12:22:13;;;;;;;1.60;1.07;;;;;;;;;;5064321;28;20413;-79
2022/01/29 12:24:40;;;;;;;3.10;1.30;;;;;;;;;;5055093;28;20414;-80
2022/01/29 12:27:07;;;;;;;2.47;1.63;;;;;;;;;;5056237;28;20512;-79
2022/01/29 12:29:34;;;;;;;4.83;1.20;;;;;;;;;;5058426;28;20438;-78
2022/01/29 12:32:00;;;;;;;3.30;1.20;;;;;;;;;;5057106;28;20456;-80
2022/01/29 12:34:28;;;;;;;1.80;1.00;;;;;;;;;;5058712;28;20448;-81
2022/01/29 12:37:08;;;;;;;2.25;1.00;;;;;;;;;;5039440;28;20444;-78
2022/01/29 12:39:34;;;;;;;2.00;1.20;;;;;;;;;;5038455;28;20187;-78
2022/01/29 12:42:55;;;;;;;1.90;1.33;;;;;;;;;;5039533;28;20393;-79
2022/01/29 12:44:55;;;;;;;3.23;1.37;;;;;;;;;;5034412;28;20419;-80
2022/01/29 12:47:31;;;;;;;1.80;1.30;;;;;;;;;;5038443;28;20419;-79
2022/01/29 12:49:57;;;;;;;2.30;1.27;;;;;;;;;;5044342;28;20426;-79
2022/01/29 12:52:24;;;;;;;2.57;1.47;;;;;;;;;;5047288;28;20450;-78
2022/01/29 12:54:57;;;;;;;4.27;1.70;;;;;;;;;;5048303;28;20450;-78
2022/01/29 12:57:24;;;;;;;5.40;1.70;;;;;;;;;;5039314;28;20435;-79
2022/01/29 12:59:50;;;;;;;2.43;1.40;;;;;;;;;;5037374;28;20878;-78
2022/01/29 13:02:16;;;;;;;2.37;1.70;;;;;;;;;;5038149;28;20406;-79
2022/01/29 13:04:47;;;;;;;3.73;1.53;;;;;;;;;;5043715;28;20492;-79
2022/01/29 13:07:14;;;;;;;2.57;1.40;;;;;;;;;;5057340;28;20393;-78
2022/01/29 13:09:40;;;;;;;3.33;1.40;;;;;;;;;;5056713;28;20433;-78
2022/01/29 13:12:07;;;;;;;2.20;1.30;;;;;;;;;;5048481;28;20806;-79
2022/01/29 13:14:34;;;;;;;2.70;1.50;;;;;;;;;;5035883;28;20454;-78
2022/01/29 13:17:01;;;;;;;1.90;1.30;;;;;;;;;;5035416;28;20423;-78
2022/01/29 13:19:29;;;;;;;2.60;1.57;;;;;;;;;;5034584;28;20415;-78
2022/01/29 13:21:59;;;;;;;3.00;1.38;;;;;;;;;;5034376;28;20421;-78
2022/01/29 13:24:25;;;;;;;3.13;1.50;;;;;;;;;;5033190;28;20179;-77
2022/01/29 13:27:02;;;;;;;3.83;1.37;;;;;;;;;;5035522;28;20418;-79
2022/01/29 13:29:33;;;;;;;8.07;1.70;;;;;;;;;;5038250;28;20418;-80
2022/01/29 13:32:00;;;;;;;3.00;1.63;;;;;;;;;;5037151;28;20418;-78
2022/01/29 13:34:30;;;;;;;2.23;1.57;;;;;;;;;;5036030;28;20446;-78
2022/01/29 13:36:56;;;;;;;2.30;1.30;;;;;;;;;;5031361;28;20450;-79
2022/01/29 13:39:25;;;;;;;4.20;1.50;;;;;;;;;;5038114;28;20813;-79
2022/01/29 13:42:08;;;;;;;2.80;1.70;;;;;;;;;;5037286;28;20828;-80
2022/01/29 13:44:35;;;;;;;2.50;1.60;;;;;;;;;;5038170;28;20444;-79
2022/01/29 13:47:10;;;;;;;2.87;1.67;;;;;;;;;;5037533;28;20483;-78
2022/01/29 13:49:37;;;;;;;2.60;1.63;;;;;;;;;;5036862;28;20454;-79
2022/01/29 13:52:13;;;;;;;3.23;1.10;;;;;;;;;;5035891;28;20941;-78
2022/01/29 13:54:40;;;;;;;2.03;1.40;;;;;;;;;;5037626;28;20453;-78
2022/01/29 13:57:06;;;;;;;2.17;1.40;;;;;;;;;;5035805;28;20418;-77
2022/01/29 13:59:32;;;;;;;2.07;1.60;;;;;;;;;;5037657;28;20786;-79
2022/01/29 14:02:04;;;;;;;2.70;1.63;;;;;;;;;;5039460;28;20422;-78
2022/01/29 14:04:36;;;;;;;2.20;1.57;;;;;;;;;;5042071;28;20417;-78
2022/01/29 14:07:12;;;;;;;3.00;1.87;;;;;;;;;;5039682;28;20418;-78
2022/01/29 14:12:24;;;;;;;2.17;1.30;;;;;;;;;;5040860;28;20852;-79
2022/01/29 14:14:52;;;;;;;2.70;1.60;;;;;;;;;;5038391;28;20549;-79
2022/01/29 14:17:24;;;;;;;2.73;1.60;;;;;;;;;;5035986;28;20421;-79
2022/01/29 14:19:54;;;;;;;7.80;1.80;;;;;;;;;;5038526;28;20501;-80
2022/01/29 14:22:21;;;;;;;2.33;1.73;;;;;;;;;;5042883;28;20413;-82
2022/01/29 14:24:48;;;;;;;3.83;1.53;;;;;;;;;;5044553;28;20422;-82
2022/01/29 14:27:14;;;;;;;2.13;1.63;;;;;;;;;;5047550;28;20418;-83
2022/01/29 14:29:42;;;;;;;3.07;2.00;;;;;;;;;;5041728;28;20427;-81
2022/01/29 14:32:08;;;;;;;2.97;1.97;;;;;;;;;;5041751;28;20414;-82
2022/01/29 14:34:34;;;;;;;4.00;2.10;;;;;;;;;;5041041;28;20866;-82
2022/01/29 14:37:00;;;;;;;3.50;2.00;;;;;;;;;;5040162;28;20424;-82
2022/01/29 14:39:27;;;;;;;4.03;2.27;;;;;;;;;;5040607;28;20422;-82
2022/01/29 14:41:54;;;;;;;3.50;2.10;;;;;;;;;;5040317;28;20422;-82
2022/01/29 14:44:20;;;;;;;3.50;2.10;;;;;;;;;;5040948;28;20407;-82
2022/01/29 14:46:46;;;;;;;3.70;2.30;;;;;;;;;;5041364;28;20541;-83
2022/01/29 14:49:13;;;;;;;3.20;2.03;;;;;;;;;;5041642;28;20434;-82
2022/01/29 14:51:42;;;;;;;5.30;2.37;;;;;;;;;;5040090;28;20480;-81
2022/01/29 14:54:08;;;;;;;6.47;2.00;;;;;;;;;;5041285;28;20454;-82
2022/01/29 14:56:35;;;;;;;4.00;2.13;;;;;;;;;;5041213;28;20416;-82
2022/01/29 14:59:01;;;;;;;3.97;2.00;;;;;;;;;;5041659;28;20410;-82
2022/01/29 15:01:28;;;;;;;4.33;2.43;;;;;;;;;;5041709;28;20446;-82
2022/01/29 15:03:54;;;;;;;5.87;2.50;;;;;;;;;;5040563;28;20422;-82